Time;durP1;ratioP1;P1;durP2;ratioP2;P2;SDS_P1;SDS_P2;PMS_P1;PMS_P2;Temp;Humidity;BMP_temperature;BMP_pressure;BME280_temperature;BME280_humidity;BME280_pressure;Samples;Min_cycle;Max_cycle;Signal;HPM_P1;HPM_P2
2021/07/06 00:00:42;;;;;;;6.80;2.92;;;;;;;18.71;75.65;100402.66;5072069;28;20048;-54
2021/07/06 00:03:10;;;;;;;5.05;2.65;;;;;;;18.72;75.55;100389.66;5072454;28;20041;-55
2021/07/06 00:05:37;;;;;;;6.20;2.55;;;;;;;18.70;75.84;100386.41;5072001;28;20048;-53
2021/07/06 00:08:05;;;;;;;3.63;2.40;;;;;;;18.72;75.21;100387.69;5072360;28;20074;-55
2021/07/06 00:10:35;;;;;;;3.83;2.65;;;;;;;18.80;74.13;100393.53;5072272;28;20043;-54
2021/07/06 00:13:03;;;;;;;5.55;2.65;;;;;;;18.86;73.44;100398.53;5072261;28;20037;-52
2021/07/06 00:15:31;;;;;;;2.75;2.28;;;;;;;18.89;73.67;100383.25;5071842;28;20051;-53
2021/07/06 00:17:59;;;;;;;4.40;2.38;;;;;;;18.89;73.41;100383.25;5072064;28;20407;-54
2021/07/06 00:20:28;;;;;;;3.42;2.30;;;;;;;18.94;73.05;100370.03;5072523;28;20052;-53
2021/07/06 00:22:57;;;;;;;5.40;2.30;;;;;;;18.99;72.88;100382.84;5072080;28;20057;-53
2021/07/06 00:25:26;;;;;;;3.30;2.15;;;;;;;18.95;72.58;100376.38;5071963;28;20040;-53
2021/07/06 00:27:54;;;;;;;2.55;1.88;;;;;;;18.92;72.95;100374.28;5072003;28;20419;-54
2021/07/06 00:30:22;;;;;;;2.47;1.70;;;;;;;18.95;72.53;100376.38;5071884;28;20063;-53
2021/07/06 00:32:50;;;;;;;2.45;1.80;;;;;;;18.97;71.97;100381.56;5071899;28;20044;-54
2021/07/06 00:35:19;;;;;;;2.72;1.60;;;;;;;19.01;72.00;100383.31;5071939;28;20032;-52
2021/07/06 00:37:46;;;;;;;2.70;1.85;;;;;;;19.03;72.13;100381.03;5071988;28;20048;-52
2021/07/06 00:40:15;;;;;;;3.05;1.80;;;;;;;18.94;73.34;100377.53;5071885;28;20032;-53
2021/07/06 00:42:46;;;;;;;3.42;1.75;;;;;;;18.87;73.70;100372.53;5071895;28;20050;-55
2021/07/06 00:45:14;;;;;;;3.05;1.75;;;;;;;18.85;73.45;100368.50;5071304;28;20045;-53
2021/07/06 00:47:44;;;;;;;2.13;1.80;;;;;;;18.81;74.31;100373.06;5071774;28;20507;-53
2021/07/06 00:50:23;;;;;;;1.85;1.67;;;;;;;18.78;74.25;100373.72;5072232;28;20140;-54
2021/07/06 00:52:51;;;;;;;1.40;1.30;;;;;;;18.80;73.46;100371.44;5053747;28;20051;-56
2021/07/06 00:55:19;;;;;;;3.40;1.88;;;;;;;18.78;75.19;100363.50;5071585;28;20044;-55
2021/07/06 00:57:47;;;;;;;4.65;1.85;;;;;;;18.73;75.48;100364.47;5071364;28;20028;-54
2021/07/06 01:00:20;;;;;;;6.05;2.90;;;;;;;18.69;76.30;100360.78;5053891;28;20110;-56
2021/07/06 01:02:49;;;;;;;2.03;1.70;;;;;;;18.63;76.21;100361.28;5075074;28;20037;-53
2021/07/06 01:05:19;;;;;;;2.08;1.52;;;;;;;18.59;76.32;100363.94;5075725;28;20055;-54
2021/07/06 01:07:47;;;;;;;2.60;1.50;;;;;;;18.61;76.38;100372.66;5075358;28;20107;-53
2021/07/06 01:10:16;;;;;;;1.90;1.38;;;;;;;18.62;75.76;100377.06;5075591;28;20067;-56
2021/07/06 01:12:45;;;;;;;2.00;1.40;;;;;;;18.57;77.34;100382.75;5073622;28;20153;-51
2021/07/06 01:15:16;;;;;;;2.28;1.70;;;;;;;18.53;77.96;100373.53;5061446;28;20513;-54
2021/07/06 01:17:44;;;;;;;1.60;1.40;;;;;;;18.50;78.47;100365.91;5075675;28;20041;-54
2021/07/06 01:20:15;;;;;;;1.73;1.55;;;;;;;18.47;78.53;100347.25;5075657;28;20055;-51
2021/07/06 01:22:44;;;;;;;3.28;1.70;;;;;;;18.42;78.81;100341.94;5075194;28;20048;-50
2021/07/06 01:25:12;;;;;;;4.30;1.90;;;;;;;18.35;79.39;100333.38;5057648;28;20439;-55
2021/07/06 01:27:41;;;;;;;1.65;1.48;;;;;;;18.29;79.55;100330.81;5056822;28;20059;-54
2021/07/06 01:30:12;;;;;;;3.08;1.75;;;;;;;18.29;79.54;100330.00;5057809;28;20055;-54
2021/07/06 01:32:41;;;;;;;1.85;1.40;;;;;;;18.28;79.55;100323.69;5075144;28;20414;-52
2021/07/06 01:35:11;;;;;;;2.97;1.67;;;;;;;18.26;79.59;100325.97;5075074;28;20127;-53
2021/07/06 01:37:50;;;;;;;2.03;1.58;;;;;;;18.29;79.46;100311.50;5075201;28;20158;-50
2021/07/06 01:40:19;;;;;;;1.80;1.58;;;;;;;18.33;79.35;100303.38;5074758;28;20049;-51
2021/07/06 01:42:48;;;;;;;3.15;1.70;;;;;;;18.33;79.57;100297.03;5074999;28;20491;-53
2021/07/06 01:45:19;;;;;;;3.50;1.83;;;;;;;18.34;79.65;100293.94;5056817;28;20139;-49
2021/07/06 01:47:48;;;;;;;3.03;1.80;;;;;;;18.33;79.80;100297.03;5075326;28;20463;-52
2021/07/06 01:50:30;;;;;;;3.50;1.90;;;;;;;18.31;79.61;100289.91;5074927;28;20049;-51
2021/07/06 01:53:00;;;;;;;3.25;1.92;;;;;;;18.34;79.52;100293.16;5074399;28;20093;-51
2021/07/06 01:55:31;;;;;;;2.13;1.80;;;;;;;18.35;79.58;100292.00;5074498;28;20055;-53
2021/07/06 01:58:00;;;;;;;2.95;1.90;;;;;;;18.38;79.69;100288.59;5074671;28;20036;-50
2021/07/06 02:00:30;;;;;;;5.40;2.00;;;;;;;18.38;79.60;100274.81;5057057;28;20052;-51
2021/07/06 02:02:58;;;;;;;4.80;1.95;;;;;;;18.36;79.66;100268.81;5074823;28;20041;-55
2021/07/06 02:05:37;;;;;;;2.20;1.90;;;;;;;18.33;79.98;100269.44;5074355;28;20048;-52
2021/07/06 02:08:07;;;;;;;2.10;1.90;;;;;;;18.31;79.91;100273.38;5074589;28;20119;-52
2021/07/06 02:10:35;;;;;;;2.20;2.00;;;;;;;18.32;79.82;100252.09;5074027;28;20090;-52
2021/07/06 02:13:04;;;;;;;4.82;2.25;;;;;;;18.30;79.79;100249.69;5074237;28;20119;-52
2021/07/06 02:15:32;;;;;;;1.63;1.52;;;;;;;18.28;79.59;100240.94;5074139;28;20052;-53
2021/07/06 02:17:59;;;;;;;2.47;1.90;;;;;;;18.29;79.84;100226.00;5074148;28;20050;-52
2021/07/06 02:20:27;;;;;;;2.42;1.77;;;;;;;18.33;79.57;100214.28;5074489;28;20513;-52
2021/07/06 02:22:55;;;;;;;3.20;2.00;;;;;;;18.34;79.30;100221.44;5074291;28;20044;-55
2021/07/06 02:25:23;;;;;;;4.60;2.00;;;;;;;18.36;79.62;100219.16;5074680;28;20056;-56
2021/07/06 02:27:51;;;;;;;3.75;1.83;;;;;;;18.36;79.21;100210.88;5074440;28;20070;-57
2021/07/06 02:30:21;;;;;;;2.33;1.95;;;;;;;18.36;79.21;100213.63;5074345;28;20470;-56
2021/07/06 02:32:49;;;;;;;4.20;1.73;;;;;;;18.33;79.17;100220.63;5056037;28;20049;-55
2021/07/06 02:35:17;;;;;;;3.58;1.77;;;;;;;18.31;79.28;100211.88;5074289;28;20040;-53
2021/07/06 02:37:46;;;;;;;3.47;2.00;;;;;;;18.31;79.15;100212.69;5074094;28;20047;-55
2021/07/06 02:40:15;;;;;;;1.92;1.67;;;;;;;18.31;79.01;100195.34;5055937;28;20049;-53
2021/07/06 02:42:43;;;;;;;2.78;1.23;;;;;;;18.33;78.91;100198.56;5073967;28;20090;-55
2021/07/06 02:45:12;;;;;;;4.35;2.10;;;;;;;18.35;78.74;100190.78;5073775;28;20047;-52
2021/07/06 02:47:40;;;;;;;3.22;1.27;;;;;;;18.35;78.72;100178.91;5074095;28;20048;-54
2021/07/06 02:50:10;;;;;;;2.33;1.98;;;;;;;18.33;78.74;100164.66;5073893;28;20044;-55
2021/07/06 02:52:37;;;;;;;2.80;1.77;;;;;;;18.31;78.64;100151.22;5073359;28;20066;-52
2021/07/06 02:55:07;;;;;;;1.85;1.70;;;;;;;18.29;78.75;100146.03;5072959;28;20132;-52
2021/07/06 02:57:36;;;;;;;1.63;1.38;;;;;;;18.29;78.51;100139.69;5055727;28;20518;-53
2021/07/06 03:00:16;;;;;;;2.53;1.35;;;;;;;18.30;78.29;100133.03;5073688;28;20056;-51
2021/07/06 03:02:46;;;;;;;2.35;1.63;;;;;;;18.28;78.52;100130.63;5073593;28;20418;-54
2021/07/06 03:05:16;;;;;;;3.85;1.50;;;;;;;18.29;78.51;100118.44;5073396;28;20051;-55
2021/07/06 03:07:44;;;;;;;2.78;2.00;;;;;;;18.29;78.34;100121.19;5073366;28;20040;-52
2021/07/06 03:10:17;;;;;;;2.95;1.33;;;;;;;18.24;78.32;100115.09;5072965;28;20040;-53
2021/07/06 03:12:46;;;;;;;3.72;1.95;;;;;;;18.19;78.53;100115.31;5073387;28;20433;-50
2021/07/06 03:15:19;;;;;;;4.07;1.85;;;;;;;18.15;78.83;100108.84;5073101;28;20044;-51
2021/07/06 03:17:47;;;;;;;2.13;1.58;;;;;;;18.17;78.62;100106.56;5073085;28;20495;-50
2021/07/06 03:20:18;;;;;;;3.67;1.77;;;;;;;18.18;78.27;100108.97;5073095;28;20037;-55
2021/07/06 03:22:46;;;;;;;3.50;1.65;;;;;;;18.21;78.19;100108.31;5072348;28;20036;-51
2021/07/06 03:25:15;;;;;;;1.92;1.60;;;;;;;18.25;77.98;100124.97;5072216;28;20055;-54
2021/07/06 03:27:43;;;;;;;1.80;1.50;;;;;;;18.27;77.69;100122.69;5073030;28;20044;-52
2021/07/06 03:30:17;;;;;;;2.13;1.50;;;;;;;18.28;77.67;100122.34;5072933;28;20044;-54
2021/07/06 03:32:45;;;;;;;2.63;1.42;;;;;;;18.30;77.43;100116.50;5072769;28;20032;-53
2021/07/06 03:35:13;;;;;;;2.78;1.38;;;;;;;18.26;77.53;100113.59;5073152;28;20036;-54
2021/07/06 03:37:41;;;;;;;2.92;1.55;;;;;;;18.26;77.50;100121.09;5071803;28;20047;-55
2021/07/06 03:40:10;;;;;;;3.83;1.70;;;;;;;18.28;77.37;100111.31;5072927;28;20047;-50
2021/07/06 03:42:39;;;;;;;2.63;1.70;;;;;;;18.30;77.36;100116.50;5072792;28;20055;-53
2021/07/06 03:45:08;;;;;;;3.67;1.60;;;;;;;18.31;76.93;100118.91;5054580;28;20048;-53
2021/07/06 03:47:36;;;;;;;1.60;1.50;;;;;;;18.33;76.96;100109.47;5072718;28;20063;-55
2021/07/06 03:50:06;;;;;;;6.40;1.98;;;;;;;18.34;77.04;100105.59;5072377;28;20495;-52
2021/07/06 03:52:34;;;;;;;2.65;1.73;;;;;;;18.34;77.00;100098.13;5072268;28;20083;-53
2021/07/06 03:55:02;;;;;;;2.75;1.75;;;;;;;18.33;76.71;100090.19;5072243;28;20048;-54
2021/07/06 03:57:29;;;;;;;5.13;1.80;;;;;;;18.33;76.99;100079.16;5072640;28;20048;-50
2021/07/06 04:00:00;;;;;;;5.00;1.92;;;;;;;18.26;77.07;100082.47;5072370;28;20060;-52
2021/07/06 04:02:27;;;;;;;2.33;1.48;;;;;;;18.23;77.43;100064.66;5054436;28;20071;-53
2021/07/06 04:04:56;;;;;;;2.00;1.65;;;;;;;18.22;77.36;100068.53;5072226;28;20048;-51
2021/07/06 04:07:23;;;;;;;4.68;1.70;;;;;;;18.23;77.15;100078.44;5072003;28;20056;-52
2021/07/06 04:09:51;;;;;;;3.33;1.70;;;;;;;18.23;77.25;100067.41;5072595;28;20526;-53
2021/07/06 04:12:19;;;;;;;3.47;1.85;;;;;;;18.22;77.47;100065.78;5071998;28;20115;-52
2021/07/06 04:14:47;;;;;;;10.45;2.05;;;;;;;18.23;77.53;100066.59;5072353;28;20059;-55
2021/07/06 04:17:15;;;;;;;6.78;1.70;;;;;;;18.22;77.58;100076.81;5072180;28;20041;-51
2021/07/06 04:19:42;;;;;;;6.78;1.88;;;;;;;18.23;77.69;100089.47;5071726;28;20032;-53
2021/07/06 04:22:10;;;;;;;4.60;1.98;;;;;;;18.16;77.42;100072.66;5072209;28;20041;-52
2021/07/06 04:24:37;;;;;;;5.70;2.00;;;;;;;18.17;77.83;100079.78;5072006;28;20060;-56
2021/07/06 04:27:05;;;;;;;5.93;1.92;;;;;;;18.17;77.98;100090.81;5072298;28;20044;-53
2021/07/06 04:29:33;;;;;;;7.85;2.22;;;;;;;18.17;77.88;100096.31;5072165;28;20043;-54
2021/07/06 04:32:00;;;;;;;1.98;1.42;;;;;;;18.27;76.65;100108.91;5072325;28;20059;-52
2021/07/06 04:34:28;;;;;;;7.20;2.30;;;;;;;18.26;77.64;100093.50;5071492;28;20068;-53
2021/07/06 04:36:55;;;;;;;2.88;1.50;;;;;;;18.22;77.55;100103.59;5071762;28;20041;-53
2021/07/06 04:39:23;;;;;;;1.92;1.02;;;;;;;18.31;75.33;100118.13;5071921;28;20055;-52
2021/07/06 04:41:50;;;;;;;4.75;1.90;;;;;;;18.40;76.26;100115.25;5071839;28;20055;-55
2021/07/06 04:44:18;;;;;;;9.40;2.17;;;;;;;18.36;76.70;100133.66;5071845;28;20057;-54
2021/07/06 04:46:45;;;;;;;3.83;1.00;;;;;;;18.39;75.89;100135.72;5072072;28;20040;-54
2021/07/06 04:49:13;;;;;;;3.80;1.85;;;;;;;18.39;76.67;100116.41;5071795;28;20131;-55
2021/07/06 04:51:40;;;;;;;0.70;0.70;;;;;;;18.40;74.74;100142.84;5071789;28;20053;-55
2021/07/06 04:54:09;;;;;;;5.53;1.80;;;;;;;18.51;75.82;100122.00;5071894;28;20464;-52
2021/07/06 04:56:36;;;;;;;2.13;1.33;;;;;;;18.58;74.65;100141.56;5071926;28;20036;-55
2021/07/06 04:59:04;;;;;;;2.08;1.45;;;;;;;18.70;73.95;100147.13;5071815;28;20044;-53
2021/07/06 05:01:32;;;;;;;2.95;1.63;;;;;;;18.75;73.89;100146.09;5071918;28;20040;-55
2021/07/06 05:04:00;;;;;;;2.15;1.38;;;;;;;18.81;73.54;100142.03;5071114;28;20514;-55
2021/07/06 05:06:28;;;;;;;2.63;1.60;;;;;;;18.77;73.84;100146.59;5037032;28;20127;-53
2021/07/06 05:08:55;;;;;;;2.47;1.63;;;;;;;18.69;74.62;100148.28;5071659;28;20094;-51
2021/07/06 05:11:23;;;;;;;2.72;1.50;;;;;;;18.71;74.44;100158.97;5071697;28;20517;-50
2021/07/06 05:13:51;;;;;;;4.95;2.13;;;;;;;18.68;74.57;100160.44;5071504;28;20079;-55
2021/07/06 05:16:19;;;;;;;9.35;2.53;;;;;;;18.64;74.93;100145.75;5053750;28;20048;-51
2021/07/06 05:18:46;;;;;;;4.90;1.60;;;;;;;18.61;75.03;100149.16;5071422;28;20060;-50
2021/07/06 05:21:16;;;;;;;6.78;1.60;;;;;;;18.63;74.91;100152.38;5071825;28;20590;-52
2021/07/06 05:24:04;;;;;;;7.90;2.17;;;;;;;18.66;74.63;100140.66;5053316;28;20048;-53
2021/07/06 05:26:31;;;;;;;8.68;2.08;;;;;;;18.70;74.56;100144.38;5071564;28;20052;-51
2021/07/06 05:28:59;;;;;;;5.30;1.83;;;;;;;18.72;74.09;100161.41;5071516;28;20513;-55
2021/07/06 05:31:27;;;;;;;8.93;1.77;;;;;;;18.76;74.44;100149.66;5071568;28;20044;-53
2021/07/06 05:33:54;;;;;;;3.70;1.95;;;;;;;18.76;74.67;100144.16;5071347;28;20131;-50
2021/07/06 05:36:22;;;;;;;2.42;1.25;;;;;;;18.91;72.53;100136.06;5071556;28;20491;-56
2021/07/06 05:38:50;;;;;;;3.65;1.83;;;;;;;18.99;73.33;100117.78;5071281;28;20364;-56
2021/07/06 05:41:17;;;;;;;2.10;1.23;;;;;;;19.20;71.66;100141.78;5071402;28;20055;-57
2021/07/06 05:43:45;;;;;;;2.90;1.95;;;;;;;19.20;72.88;100114.16;5071395;28;20043;-55
2021/07/06 05:46:13;;;;;;;6.20;1.98;;;;;;;19.19;73.13;100112.53;5071073;28;20048;-55
2021/07/06 05:48:41;;;;;;;4.57;2.08;;;;;;;19.11;72.60;100128.06;5073468;28;20576;-53
2021/07/06 05:51:09;;;;;;;7.57;2.20;;;;;;;19.06;74.33;100111.72;5075083;28;20049;-54
2021/07/06 05:53:37;;;;;;;9.27;2.20;;;;;;;19.09;73.81;100124.84;4372260;28;10000373;-51
2021/07/06 05:56:05;;;;;;;4.07;1.98;;;;;;;19.00;73.12;100127.72;5072824;28;20072;-54
2021/07/06 05:58:32;;;;;;;12.50;3.47;;;;;;;19.07;72.97;100122.44;5072297;28;20040;-52
2021/07/06 06:01:00;;;;;;;7.13;3.55;;;;;;;18.98;74.22;100130.00;5072453;28;20048;-56
2021/07/06 06:03:27;;;;;;;8.63;2.55;;;;;;;18.93;74.58;100122.75;5072027;28;20049;-51
2021/07/06 06:05:55;;;;;;;8.82;2.72;;;;;;;18.91;74.48;100124.22;5072306;28;20059;-49
2021/07/06 06:08:23;;;;;;;6.32;2.83;;;;;;;18.88;74.68;100116.63;5072411;28;20048;-50
2021/07/06 06:10:50;;;;;;;11.45;3.35;;;;;;;18.99;73.30;100117.78;5054610;28;20052;-50
2021/07/06 06:13:18;;;;;;;11.30;2.58;;;;;;;19.06;74.51;100115.28;5072622;28;20056;-54
2021/07/06 06:15:45;;;;;;;5.18;2.30;;;;;;;19.01;74.31;100117.47;5057814;28;20048;-52
2021/07/06 06:18:13;;;;;;;5.97;2.55;;;;;;;19.02;74.46;100114.34;5071673;28;20094;-54
2021/07/06 06:20:41;;;;;;;6.72;2.70;;;;;;;18.98;75.34;100112.59;5071608;28;20047;-52
2021/07/06 06:23:09;;;;;;;5.15;2.10;;;;;;;18.94;75.85;100106.97;5072150;28;20120;-51
2021/07/06 06:25:36;;;;;;;9.98;2.35;;;;;;;18.89;76.46;100104.44;5072195;28;20036;-53
2021/07/06 06:28:04;;;;;;;8.35;2.83;;;;;;;18.91;75.73;100100.19;5072182;28;20055;-53
2021/07/06 06:30:31;;;;;;;10.63;3.00;;;;;;;18.98;74.42;100101.56;5071667;28;20053;-55
2021/07/06 06:32:59;;;;;;;6.22;2.20;;;;;;;18.99;75.86;100098.47;5071678;28;20047;-56
2021/07/06 06:35:26;;;;;;;5.82;2.38;;;;;;;18.93;76.64;100089.63;5071988;28;20098;-54
2021/07/06 06:37:54;;;;;;;5.32;1.88;;;;;;;18.94;76.28;100093.16;5071777;28;20052;-55
2021/07/06 06:40:21;;;;;;;3.97;2.10;;;;;;;18.93;76.36;100086.84;5071449;28;20044;-55
2021/07/06 06:42:50;;;;;;;6.10;2.17;;;;;;;18.94;76.17;100090.41;5071387;28;20040;-54
2021/07/06 06:45:18;;;;;;;3.55;2.03;;;;;;;18.92;76.52;100099.03;5071294;28;20063;-55
2021/07/06 06:47:45;;;;;;;7.15;2.20;;;;;;;18.91;76.52;100104.91;5071409;28;20090;-55
2021/07/06 06:50:14;;;;;;;5.25;2.45;;;;;;;18.94;75.78;100102.25;5071534;28;20127;-57
2021/07/06 06:52:42;;;;;;;4.82;2.30;;;;;;;19.09;75.46;100097.22;5071576;28;20128;-52
2021/07/06 06:55:10;;;;;;;8.88;2.80;;;;;;;19.19;73.21;100115.28;5052534;28;20470;-54
2021/07/06 06:57:38;;;;;;;4.00;1.83;;;;;;;19.18;74.93;100116.47;5071599;28;20045;-52
2021/07/06 07:00:08;;;;;;;4.68;2.30;;;;;;;19.17;74.44;100115.66;5069649;28;20032;-53
2021/07/06 07:02:38;;;;;;;6.53;1.90;;;;;;;19.27;72.63;100109.69;5071226;28;20040;-55
2021/07/06 07:05:07;;;;;;;7.63;1.95;;;;;;;19.38;72.87;100112.78;5070725;28;20044;-53
2021/07/06 07:07:35;;;;;;;6.97;2.00;;;;;;;19.30;73.58;100108.19;5071148;28;20510;-53
2021/07/06 07:10:05;;;;;;;5.93;2.20;;;;;;;19.34;73.13;100122.91;5071022;28;20494;-53
2021/07/06 07:12:35;;;;;;;5.70;2.08;;;;;;;19.33;72.56;100124.06;5071435;28;20044;-52
2021/07/06 07:15:07;;;;;;;8.65;1.95;;;;;;;19.49;72.25;100127.75;5070297;28;20044;-54
2021/07/06 07:17:35;;;;;;;2.60;1.85;;;;;;;19.62;71.30;100125.78;5071334;28;20050;-56
2021/07/06 07:20:05;;;;;;;6.65;1.73;;;;;;;19.51;71.38;100121.91;5072655;28;20388;-53
2021/07/06 07:22:33;;;;;;;4.95;2.50;;;;;;;19.45;72.16;100123.25;5072949;28;20053;-54
2021/07/06 07:25:00;;;;;;;2.10;1.50;;;;;;;19.44;71.73;100119.69;5071295;28;20471;-51
2021/07/06 07:27:29;;;;;;;8.15;1.95;;;;;;;19.59;70.68;100130.03;5065786;28;20054;-52
2021/07/06 07:29:58;;;;;;;2.42;1.35;;;;;;;19.51;71.09;100135.72;5077875;28;20516;-52
2021/07/06 07:32:25;;;;;;;5.10;1.90;;;;;;;19.42;71.08;100132.25;5078973;28;20036;-52
2021/07/06 07:34:53;;;;;;;3.35;1.52;;;;;;;19.72;69.94;100136.44;5072399;28;20037;-52
2021/07/06 07:37:24;;;;;;;2.10;1.90;;;;;;;19.70;69.58;100143.41;5072041;28;20134;-54
2021/07/06 07:39:51;;;;;;;7.47;1.40;;;;;;;19.64;70.07;100150.31;5054187;28;20403;-53
2021/07/06 07:42:20;;;;;;;3.70;1.52;;;;;;;19.70;69.78;100152.53;5071967;28;20052;-50
2021/07/06 07:44:47;;;;;;;2.42;1.55;;;;;;;19.67;69.18;100160.69;5071655;28;20514;-53
2021/07/06 07:47:15;;;;;;;3.28;1.60;;;;;;;19.71;69.38;100158.88;5072165;28;20047;-52
2021/07/06 07:49:43;;;;;;;7.72;2.72;;;;;;;19.79;69.25;100157.94;5067505;28;20044;-55
2021/07/06 07:52:10;;;;;;;10.63;3.30;;;;;;;19.88;68.78;100150.34;5072143;28;20044;-52
2021/07/06 07:54:38;;;;;;;5.60;2.20;;;;;;;19.92;67.51;100156.78;5071258;28;20057;-51
2021/07/06 07:57:09;;;;;;;13.45;3.38;;;;;;;20.03;67.29;100172.91;5058356;28;20039;-53
2021/07/06 07:59:40;;;;;;;21.58;4.20;;;;;;;20.06;67.95;100177.72;5071862;28;20040;-55
2021/07/06 08:02:08;;;;;;;7.63;2.30;;;;;;;19.82;66.99;100176.63;5071863;28;20055;-53
2021/07/06 08:04:36;;;;;;;11.07;3.33;;;;;;;19.64;67.40;100167.69;5071971;28;20041;-53
2021/07/06 08:07:03;;;;;;;21.33;6.93;;;;;;;19.81;66.88;100177.75;5071753;28;20041;-54
2021/07/06 08:09:31;;;;;;;21.10;5.75;;;;;;;19.90;67.38;100170.16;5072024;28;20059;-55
2021/07/06 08:11:58;;;;;;;12.20;3.50;;;;;;;19.86;66.48;100185.81;5071380;28;20574;-51
2021/07/06 08:14:26;;;;;;;18.38;4.55;;;;;;;19.86;67.81;100180.28;5053365;28;20050;-55
2021/07/06 08:16:54;;;;;;;14.75;3.95;;;;;;;20.11;66.73;100185.81;5071578;28;20044;-50
2021/07/06 08:19:22;;;;;;;8.18;2.85;;;;;;;20.21;66.09;100190.84;5071879;28;20036;-53
2021/07/06 08:21:50;;;;;;;6.15;2.13;;;;;;;20.42;65.00;100185.97;5072066;28;20037;-50
2021/07/06 08:24:18;;;;;;;9.07;2.70;;;;;;;20.40;63.93;100199.34;5071186;28;20048;-52
2021/07/06 08:26:46;;;;;;;4.75;1.67;;;;;;;20.31;63.88;100201.44;5071408;28;20067;-51
2021/07/06 08:29:16;;;;;;;7.97;2.60;;;;;;;20.34;63.77;100195.19;5071351;28;20041;-53
2021/07/06 08:31:43;;;;;;;9.52;2.70;;;;;;;20.35;64.33;100199.59;5071498;28;20044;-54
2021/07/06 08:34:12;;;;;;;8.55;2.67;;;;;;;20.35;64.38;100210.66;5079088;28;20036;-52
2021/07/06 08:36:42;;;;;;;6.35;2.17;;;;;;;20.25;63.95;100208.34;5066424;28;20090;-52
2021/07/06 08:39:10;;;;;;;8.25;2.58;;;;;;;20.13;63.83;100214.72;5071689;28;20044;-52
2021/07/06 08:41:38;;;;;;;6.13;2.10;;;;;;;20.09;64.09;100215.78;5071357;28;20479;-49
2021/07/06 08:44:06;;;;;;;6.38;2.53;;;;;;;20.00;64.02;100213.91;5053461;28;20120;-48
2021/07/06 08:46:36;;;;;;;6.00;2.67;;;;;;;20.03;65.14;100222.69;5071475;28;20038;-51
2021/07/06 08:49:06;;;;;;;6.50;2.13;;;;;;;19.94;64.98;100215.31;5071446;28;20068;-51
2021/07/06 08:51:35;;;;;;;5.00;2.10;;;;;;;20.05;65.16;100209.31;5071390;28;20041;-51
2021/07/06 08:54:03;;;;;;;4.57;1.90;;;;;;;20.03;65.26;100217.16;5053167;28;20140;-48
2021/07/06 08:56:30;;;;;;;12.23;2.70;;;;;;;20.21;64.18;100213.78;5069125;28;20139;-48
2021/07/06 08:58:58;;;;;;;9.20;2.47;;;;;;;20.13;64.50;100227.72;5071282;28;20090;-49
2021/07/06 09:01:29;;;;;;;7.38;2.65;;;;;;;20.14;64.60;100229.34;5071446;28;20060;-51
2021/07/06 09:04:00;;;;;;;3.22;1.42;;;;;;;19.91;63.77;100227.03;5059626;28;20036;-53
2021/07/06 09:06:29;;;;;;;10.10;2.40;;;;;;;19.82;64.60;100229.16;5071412;28;20048;-51
2021/07/06 09:09:19;;;;;;;3.80;1.52;;;;;;;19.67;64.89;100229.78;5070524;28;20043;-49
2021/07/06 09:12:00;;;;;;;4.90;1.80;;;;;;;19.54;64.09;100227.00;5071422;28;20052;-51
2021/07/06 09:14:30;;;;;;;5.47;1.75;;;;;;;19.46;62.73;100232.63;5071532;28;20055;-51
2021/07/06 09:17:13;;;;;;;7.18;2.00;;;;;;;19.40;62.12;100236.75;5071480;28;20399;-54
2021/07/06 09:19:43;;;;;;;3.42;1.55;;;;;;;19.39;64.00;100244.25;5071510;28;20044;-51
2021/07/06 09:22:33;;;;;;;10.70;2.20;;;;;;;19.47;62.43;100245.28;5072126;28;20048;-51
2021/07/06 09:25:03;;;;;;;11.80;2.53;;;;;;;19.47;62.38;100246.09;5062967;28;20506;-53
2021/07/06 09:27:32;;;;;;;6.68;2.40;;;;;;;19.51;62.52;100240.72;5057264;28;20045;-51
2021/07/06 09:30:18;;;;;;;5.70;2.63;;;;;;;19.55;64.65;100239.69;5075492;28;20526;-56
2021/07/06 09:32:47;;;;;;;;;;;;;;;19.67;63.80;100232.53;5076537;28;20055;-55
2021/07/06 09:35:29;;;;;;;6.07;1.90;;;;;;;19.62;61.72;100243.81;5057997;28;20348;-56
2021/07/06 09:38:04;;;;;;;6.25;1.92;;;;;;;19.61;61.70;100236.69;5075456;28;20048;-56
2021/07/06 09:40:40;;;;;;;7.03;2.10;;;;;;;19.59;62.01;100242.56;5074554;28;20052;-51
2021/07/06 09:43:26;;;;;;;7.75;2.33;;;;;;;19.65;61.69;100249.47;5074993;28;20037;-52
2021/07/06 09:46:04;;;;;;;6.47;2.22;;;;;;;19.63;61.90;100253.75;5074892;28;20537;-55
2021/07/06 09:48:34;;;;;;;6.90;2.58;;;;;;;19.68;63.08;100246.06;5057430;28;20041;-52
2021/07/06 09:51:23;;;;;;;8.65;2.75;;;;;;;19.71;63.83;100256.41;5074911;28;20094;-55
2021/07/06 09:53:54;;;;;;;10.45;2.20;;;;;;;19.70;61.86;100257.56;5061844;28;20419;-51
2021/07/06 09:56:24;;;;;;;8.65;2.60;;;;;;;19.77;62.06;100254.22;5074227;28;20053;-53
2021/07/06 09:58:56;;;;;;;7.72;2.63;;;;;;;19.86;61.78;100254.94;5057202;28;20036;-50
2021/07/06 10:01:24;;;;;;;8.70;2.10;;;;;;;19.87;61.56;100251.03;5074694;28;20045;-51
2021/07/06 10:03:53;;;;;;;6.80;2.03;;;;;;;19.84;61.44;100260.00;5074655;28;20124;-53
2021/07/06 10:06:23;;;;;;;5.38;2.08;;;;;;;19.85;62.22;100261.63;5074429;28;20059;-52
2021/07/06 10:08:53;;;;;;;5.78;2.35;;;;;;;19.86;63.22;100270.72;5074215;28;20045;-54
2021/07/06 10:11:22;;;;;;;5.18;2.25;;;;;;;19.84;62.36;100275.78;5056769;28;20044;-54
2021/07/06 10:13:50;;;;;;;6.53;2.45;;;;;;;19.83;62.50;100285.22;5074375;28;20040;-54
2021/07/06 10:16:18;;;;;;;6.10;2.22;;;;;;;19.82;63.28;100284.44;5074249;28;20044;-55
2021/07/06 10:18:49;;;;;;;4.05;2.00;;;;;;;19.88;62.29;100299.63;5073946;28;20072;-56
2021/07/06 10:21:16;;;;;;;4.70;2.00;;;;;;;19.85;62.43;100296.75;5074250;28;20132;-53
2021/07/06 10:23:44;;;;;;;8.77;2.55;;;;;;;19.89;62.43;100311.50;5073982;28;20098;-54
2021/07/06 10:26:14;;;;;;;4.70;1.70;;;;;;;19.90;61.09;100311.16;5056416;28;20044;-53
2021/07/06 10:28:42;;;;;;;6.05;2.53;;;;;;;19.97;64.08;100311.41;5039979;28;20045;-54
2021/07/06 10:31:17;;;;;;;7.25;2.33;;;;;;;20.09;62.54;100315.34;5056219;28;20052;-53
2021/07/06 10:33:46;;;;;;;6.28;2.20;;;;;;;20.27;64.00;100313.94;5074141;28;20059;-54
2021/07/06 10:36:18;;;;;;;6.63;1.98;;;;;;;20.33;58.00;100311.75;5056773;28;20049;-56
2021/07/06 10:38:56;;;;;;;5.10;1.77;;;;;;;20.37;61.87;100302.44;5056030;28;20032;-53
2021/07/06 10:41:36;;;;;;;7.00;2.10;;;;;;;20.51;59.24;100315.09;5056098;28;20036;-52
2021/07/06 10:44:05;;;;;;;8.40;2.17;;;;;;;20.60;53.23;100326.88;5073870;28;20131;-50
2021/07/06 10:46:39;;;;;;;8.60;1.88;;;;;;;20.58;58.99;100334.72;5073747;28;20127;-55
2021/07/06 10:49:15;;;;;;;9.02;2.08;;;;;;;20.59;52.16;100331.59;5073614;28;20406;-52
2021/07/06 10:51:43;;;;;;;8.75;2.22;;;;;;;20.55;52.47;100340.91;5073467;28;20120;-52
2021/07/06 10:54:26;;;;;;;4.70;2.03;;;;;;;20.62;52.65;100344.75;5073105;28;20049;-53
2021/07/06 10:57:07;;;;;;;7.65;2.03;;;;;;;20.58;53.06;100343.81;5073754;28;20044;-53
2021/07/06 10:59:35;;;;;;;4.45;1.67;;;;;;;20.61;60.78;100334.00;5073817;28;20044;-52
2021/07/06 11:02:12;;;;;;;9.00;2.25;;;;;;;20.55;52.53;100347.28;5073340;28;20406;-53
2021/07/06 11:04:45;;;;;;;6.93;2.00;;;;;;;20.55;55.52;100357.53;5073499;28;20053;-53
2021/07/06 11:07:13;;;;;;;5.50;1.90;;;;;;;20.49;52.50;100356.13;5072816;28;20036;-52
2021/07/06 11:09:41;;;;;;;5.97;1.98;;;;;;;20.47;53.00;100358.44;5055176;28;20086;-52
2021/07/06 11:12:30;;;;;;;11.13;1.92;;;;;;;20.54;59.91;100353.97;5073255;28;20490;-53
2021/07/06 11:15:18;;;;;;;6.90;2.10;;;;;;;20.61;54.87;100353.38;5073247;28;20086;-52
2021/07/06 11:17:47;;;;;;;6.95;2.20;;;;;;;20.60;53.53;100363.66;5061765;28;20056;-51
2021/07/06 11:20:17;;;;;;;5.10;1.98;;;;;;;20.54;50.34;100369.75;5072767;28;20423;-50
2021/07/06 11:22:55;;;;;;;13.82;2.40;;;;;;;20.56;56.16;100370.22;5072883;28;20091;-51
2021/07/06 11:25:25;;;;;;;5.65;1.85;;;;;;;20.61;55.42;100383.84;5073238;28;20045;-54
2021/07/06 11:28:24;;;;;;;7.25;2.20;;;;;;;20.67;53.65;100379.69;5072915;28;20064;-53
2021/07/06 11:31:03;;;;;;;2.88;1.63;;;;;;;20.66;58.43;100378.09;5073075;28;20044;-55
2021/07/06 11:33:31;;;;;;;6.63;2.22;;;;;;;20.65;56.80;100384.75;5073237;28;20119;-53
2021/07/06 11:36:03;;;;;;;3.60;1.63;;;;;;;20.58;53.20;100387.31;5072280;28;20472;-55